createdAt,value
2023-12-01T00:01:09.087Z,9.15
2023-12-01T00:03:35.790Z,9.93
2023-12-01T00:06:02.465Z,9.35
2023-12-01T00:08:29.074Z,11.45
2023-12-01T00:10:55.617Z,8.98
2023-12-01T00:13:22.170Z,8.45
2023-12-01T00:15:48.775Z,9.20
2023-12-01T00:18:15.430Z,9.93
2023-12-01T00:20:44.330Z,10.68
2023-12-01T00:23:10.929Z,9.50
2023-12-01T00:25:37.573Z,8.20
2023-12-01T00:28:04.130Z,11.35
2023-12-01T00:30:33.539Z,8.63
2023-12-01T00:33:01.328Z,7.63
2023-12-01T00:35:27.966Z,8.23
2023-12-01T00:37:54.474Z,9.73
2023-12-01T00:40:21.311Z,9.38
2023-12-01T00:42:47.890Z,9.43
2023-12-01T00:45:16.626Z,9.73
2023-12-01T00:47:43.306Z,7.45
2023-12-01T00:50:10.402Z,9.45
2023-12-01T00:52:37.061Z,8.82
2023-12-01T00:55:04.530Z,6.88
2023-12-01T00:57:31.104Z,10.00
2023-12-01T00:59:57.691Z,7.00
2023-12-01T01:02:24.229Z,7.47
2023-12-01T01:04:50.876Z,7.75
2023-12-01T01:07:17.441Z,7.10
2023-12-01T01:09:44.106Z,8.35
2023-12-01T01:12:10.700Z,7.70
2023-12-01T01:14:37.278Z,8.13
2023-12-01T01:17:04.027Z,8.23
2023-12-01T01:19:30.635Z,6.53
2023-12-01T01:21:57.996Z,6.07
2023-12-01T01:24:24.736Z,6.75
2023-12-01T01:26:51.442Z,8.63
2023-12-01T01:29:18.077Z,8.60
2023-12-01T01:31:44.701Z,7.97
2023-12-01T01:34:11.673Z,6.68
2023-12-01T01:36:38.324Z,8.10
2023-12-01T01:39:04.942Z,7.63
2023-12-01T01:41:31.546Z,8.88
2023-12-01T01:43:58.705Z,6.82
2023-12-01T01:46:25.693Z,7.55
2023-12-01T01:48:52.515Z,6.63
2023-12-01T01:51:20.453Z,6.25
2023-12-01T01:53:47.321Z,6.32
2023-12-01T01:56:16.203Z,7.38
2023-12-01T01:58:43.168Z,7.63
2023-12-01T02:01:09.867Z,7.25
2023-12-01T02:03:36.698Z,8.40
2023-12-01T02:06:09.498Z,7.18
2023-12-01T02:08:36.663Z,8.75
2023-12-01T02:11:03.620Z,7.68
2023-12-01T02:13:30.343Z,9.85
2023-12-01T02:15:56.922Z,7.25
2023-12-01T02:18:32.014Z,9.30
2023-12-01T02:20:59.822Z,8.63
2023-12-01T02:23:27.741Z,10.43
2023-12-01T02:25:54.994Z,7.25
2023-12-01T02:28:21.738Z,7.22
2023-12-01T02:30:54.264Z,7.10
2023-12-01T02:33:21.574Z,8.50
2023-12-01T02:35:49.225Z,7.88
2023-12-01T02:38:16.540Z,8.00
2023-12-01T02:40:50.716Z,10.30
2023-12-01T02:43:19.183Z,9.48
2023-12-01T02:45:46.497Z,9.57
2023-12-01T02:48:13.314Z,7.95
2023-12-01T02:50:39.954Z,7.30
2023-12-01T02:53:06.922Z,10.10
2023-12-01T02:55:33.896Z,10.65
2023-12-01T02:58:00.935Z,8.43
2023-12-01T03:00:27.645Z,8.68
2023-12-01T03:02:54.268Z,8.18
2023-12-01T03:05:21.331Z,7.97
2023-12-01T03:07:49.045Z,9.20
2023-12-01T03:10:16.627Z,10.57
2023-12-01T03:12:44.956Z,10.00
2023-12-01T03:15:13.460Z,10.60
2023-12-01T03:17:41.369Z,11.15
2023-12-01T03:20:12.012Z,8.25
2023-12-01T03:22:40.151Z,9.05
2023-12-01T03:25:13.684Z,9.45
2023-12-01T03:27:43.693Z,8.70
2023-12-01T03:30:15.342Z,8.90
2023-12-01T03:32:46.919Z,10.23
2023-12-01T03:35:21.965Z,8.70
2023-12-01T03:37:50.077Z,8.50
2023-12-01T03:40:17.000Z,8.13
2023-12-01T03:42:49.075Z,7.65
2023-12-01T03:45:17.271Z,8.90
2023-12-01T03:47:45.599Z,9.23
2023-12-01T03:50:15.138Z,10.73
2023-12-01T03:52:43.625Z,7.97
2023-12-01T03:55:11.765Z,8.80
2023-12-01T03:57:39.351Z,8.88
2023-12-01T04:00:14.619Z,7.63
2023-12-01T04:02:43.114Z,8.57
2023-12-01T04:05:20.973Z,8.75
2023-12-01T04:07:51.658Z,8.10
2023-12-01T04:10:19.594Z,8.32
2023-12-01T04:12:47.011Z,10.90
2023-12-01T04:15:19.072Z,9.27
2023-12-01T04:17:48.036Z,8.50
2023-12-01T04:20:23.348Z,8.70
2023-12-01T04:23:01.270Z,9.43
2023-12-01T04:25:28.803Z,8.70
2023-12-01T04:27:56.823Z,9.07
2023-12-01T04:30:24.865Z,9.00
2023-12-01T04:32:55.274Z,8.35
2023-12-01T04:35:24.511Z,9.27
2023-12-01T04:37:51.468Z,11.60
2023-12-01T04:40:18.613Z,10.00
2023-12-01T04:42:47.052Z,9.23
2023-12-01T04:45:17.030Z,9.43
2023-12-01T04:47:45.156Z,9.38
2023-12-01T04:50:14.432Z,8.93
2023-12-01T04:52:53.987Z,10.80
2023-12-01T04:55:21.993Z,10.48
2023-12-01T04:57:49.254Z,9.95
2023-12-01T05:00:22.021Z,8.20
2023-12-01T05:03:02.956Z,9.02
2023-12-01T05:05:31.675Z,9.80
2023-12-01T05:08:00.759Z,10.68
2023-12-01T05:12:56.849Z,8.55
2023-12-01T05:15:27.847Z,7.97
2023-12-01T05:17:59.984Z,9.32
2023-12-01T05:20:28.840Z,10.35
2023-12-01T05:23:00.719Z,8.93
2023-12-01T05:25:29.099Z,8.35
2023-12-01T05:28:00.803Z,10.13
2023-12-01T05:30:29.175Z,10.85
2023-12-01T05:32:57.413Z,8.40
2023-12-01T05:35:24.093Z,9.05
2023-12-01T05:37:52.530Z,8.60
2023-12-01T05:40:30.157Z,9.38
2023-12-01T05:42:58.843Z,10.15
2023-12-01T05:45:27.832Z,10.05
2023-12-01T05:47:56.234Z,9.15
2023-12-01T05:50:27.751Z,9.45
2023-12-01T05:52:56.525Z,9.80
2023-12-01T05:55:25.309Z,8.50
2023-12-01T05:57:54.604Z,8.38
2023-12-01T06:00:23.382Z,8.43
2023-12-01T06:02:53.973Z,8.73
2023-12-01T06:05:22.140Z,11.45
2023-12-01T06:07:59.599Z,10.65
2023-12-01T06:10:27.917Z,11.25
2023-12-01T06:12:55.268Z,9.93
2023-12-01T06:15:22.890Z,9.32
2023-12-01T06:17:51.589Z,8.63
2023-12-01T06:20:21.584Z,8.63
2023-12-01T06:23:08.657Z,8.55
2023-12-01T06:25:38.379Z,7.45
2023-12-01T06:30:38.001Z,9.98
2023-12-01T06:33:08.261Z,8.25
2023-12-01T06:35:35.395Z,8.70
2023-12-01T06:38:02.137Z,9.40
2023-12-01T06:40:28.693Z,9.68
2023-12-01T06:42:56.691Z,9.07
2023-12-01T06:45:29.347Z,8.13
2023-12-01T06:48:00.240Z,10.15
2023-12-01T06:50:28.112Z,9.05
2023-12-01T06:52:55.181Z,7.38
2023-12-01T06:55:22.128Z,8.30
2023-12-01T06:57:50.053Z,8.15
2023-12-01T07:00:32.444Z,7.18
2023-12-01T07:03:11.517Z,7.07
2023-12-01T07:05:40.634Z,7.78
2023-12-01T07:08:13.596Z,8.52
2023-12-01T07:10:40.793Z,8.00
2023-12-01T07:13:07.428Z,7.70
2023-12-01T07:15:34.117Z,7.82
2023-12-01T07:18:00.961Z,7.35
2023-12-01T07:20:27.605Z,7.70
2023-12-01T07:22:55.283Z,7.03
2023-12-01T07:25:23.710Z,6.65
2023-12-01T07:28:07.044Z,6.57
2023-12-01T07:30:33.902Z,6.60
2023-12-01T07:33:01.984Z,6.80
2023-12-01T07:35:28.840Z,6.50
2023-12-01T07:37:55.903Z,5.40
2023-12-01T07:40:23.809Z,6.78
2023-12-01T07:42:56.216Z,7.30
2023-12-01T07:45:23.454Z,7.30
2023-12-01T07:47:56.258Z,8.80
2023-12-01T07:50:23.951Z,8.75
2023-12-01T07:52:51.787Z,8.00
2023-12-01T07:55:22.366Z,6.88
2023-12-01T07:57:49.586Z,6.55
2023-12-01T08:00:17.479Z,5.90
2023-12-01T08:02:55.211Z,5.97
2023-12-01T08:05:24.024Z,5.30
2023-12-01T08:07:56.643Z,7.32
2023-12-01T08:10:26.348Z,6.28
2023-12-01T08:12:58.439Z,6.10
2023-12-01T08:15:27.821Z,5.55
2023-12-01T08:17:55.023Z,7.38
2023-12-01T08:20:21.740Z,5.38
2023-12-01T08:22:50.984Z,5.55
2023-12-01T08:25:18.565Z,4.78
2023-12-01T08:27:45.167Z,5.50
2023-12-01T08:30:18.576Z,8.13
2023-12-01T08:32:48.407Z,6.40
2023-12-01T08:35:16.672Z,6.22
2023-12-01T08:37:43.594Z,5.93
2023-12-01T08:40:13.571Z,5.03
2023-12-01T08:42:42.034Z,5.20
2023-12-01T08:45:09.928Z,6.82
2023-12-01T08:47:36.939Z,5.05
2023-12-01T08:50:08.945Z,5.25
2023-12-01T08:52:36.607Z,5.30
2023-12-01T08:55:03.991Z,5.35
2023-12-01T08:57:31.768Z,4.78
2023-12-01T08:59:58.322Z,4.50
2023-12-01T09:02:25.261Z,5.82
2023-12-01T09:04:52.223Z,6.80
2023-12-01T09:07:18.804Z,5.25
2023-12-01T09:09:45.376Z,6.63
2023-12-01T09:12:11.939Z,4.90
2023-12-01T09:14:39.102Z,6.72
2023-12-01T09:17:05.719Z,6.50
2023-12-01T09:19:32.364Z,4.90
2023-12-01T09:21:59.305Z,4.65
2023-12-01T09:24:26.077Z,5.15
2023-12-01T09:26:54.128Z,5.65
2023-12-01T09:29:20.753Z,5.90
2023-12-01T09:31:48.569Z,7.28
2023-12-01T09:34:15.251Z,5.07
2023-12-01T09:36:45.168Z,5.25
2023-12-01T09:39:11.991Z,5.88
2023-12-01T09:41:40.296Z,5.53
2023-12-01T09:44:13.410Z,6.03
2023-12-01T09:46:41.307Z,5.43
2023-12-01T09:49:07.998Z,4.88
2023-12-01T09:51:37.487Z,5.13
2023-12-01T09:54:05.315Z,5.40
2023-12-01T09:56:33.055Z,5.40
2023-12-01T09:59:00.394Z,4.53
2023-12-01T10:01:27.649Z,6.35
2023-12-01T10:03:54.453Z,5.38
2023-12-01T10:06:21.467Z,5.43
2023-12-01T10:08:50.604Z,4.95
2023-12-01T10:11:25.866Z,4.30
2023-12-01T10:13:53.163Z,5.78
2023-12-01T10:16:20.970Z,6.60
2023-12-01T10:18:58.642Z,4.80
2023-12-01T10:21:54.689Z,4.30
2023-12-01T10:24:22.564Z,3.90
2023-12-01T10:26:51.381Z,5.40
2023-12-01T10:29:32.030Z,4.53
2023-12-01T10:32:12.739Z,4.65
2023-12-01T10:34:39.576Z,6.53
2023-12-01T10:37:06.606Z,4.93
2023-12-01T10:39:33.891Z,5.03
2023-12-01T10:42:04.073Z,4.68
2023-12-01T10:44:32.915Z,4.38
2023-12-01T10:47:00.476Z,6.40
2023-12-01T10:49:28.403Z,4.88
2023-12-01T10:52:00.633Z,5.28
2023-12-01T10:54:28.843Z,6.05
2023-12-01T10:57:17.421Z,4.82
2023-12-01T10:59:59.621Z,5.45
2023-12-01T11:02:27.638Z,4.18
2023-12-01T11:04:55.267Z,5.25
2023-12-01T11:07:43.611Z,5.20
2023-12-01T11:10:26.846Z,6.97
2023-12-01T11:13:19.499Z,5.80
2023-12-01T11:15:49.904Z,4.75
2023-12-01T11:18:17.499Z,4.97
2023-12-01T11:20:46.322Z,5.13
2023-12-01T11:23:16.419Z,5.60
2023-12-01T11:25:48.246Z,5.68
2023-12-01T11:28:31.168Z,4.43
2023-12-01T11:31:08.947Z,4.15
2023-12-01T11:33:40.513Z,4.65
2023-12-01T11:36:48.893Z,6.50
2023-12-01T11:39:22.056Z,5.43
2023-12-01T11:42:10.550Z,4.68
2023-12-01T11:44:39.807Z,4.30
2023-12-01T11:47:10.030Z,5.13
2023-12-01T11:49:40.678Z,5.65
2023-12-01T11:52:16.126Z,6.47
2023-12-01T11:54:43.779Z,5.88
2023-12-01T11:57:17.418Z,4.93
2023-12-01T11:59:44.990Z,5.60
2023-12-01T12:02:11.653Z,4.00
2023-12-01T12:04:39.291Z,6.35
2023-12-01T12:07:06.937Z,4.80
2023-12-01T12:09:36.304Z,4.65
2023-12-01T12:12:06.402Z,4.65
2023-12-01T12:14:36.184Z,4.88
2023-12-01T12:17:03.243Z,6.40
2023-12-01T12:19:40.908Z,3.95
2023-12-01T12:22:07.822Z,4.20
2023-12-01T12:24:34.925Z,6.10
2023-12-01T12:27:01.748Z,4.13
2023-12-01T12:29:28.400Z,5.10
2023-12-01T12:31:55.184Z,5.53
2023-12-01T12:34:24.477Z,6.30
2023-12-01T12:36:52.436Z,4.47
2023-12-01T12:39:23.757Z,4.57
2023-12-01T12:41:54.253Z,6.22
2023-12-01T12:44:21.723Z,5.55
2023-12-01T12:47:01.648Z,6.03
2023-12-01T12:49:31.768Z,5.97
2023-12-01T12:52:00.407Z,5.03
2023-12-01T12:54:27.639Z,5.63
2023-12-01T12:56:54.518Z,4.38
2023-12-01T12:59:21.365Z,4.63
2023-12-01T13:01:48.036Z,5.72
2023-12-01T13:04:14.729Z,4.03
2023-12-01T13:06:48.780Z,6.25
2023-12-01T13:09:17.247Z,5.05
2023-12-01T13:11:44.605Z,4.57
2023-12-01T13:14:13.822Z,4.57
2023-12-01T13:16:51.792Z,5.03
2023-12-01T13:19:22.871Z,6.05
2023-12-01T13:21:53.033Z,4.55
2023-12-01T13:24:22.372Z,4.68
2023-12-01T13:26:49.218Z,4.55
2023-12-01T13:29:16.031Z,5.93
2023-12-01T13:31:42.880Z,4.32
2023-12-01T13:34:09.647Z,6.07
2023-12-01T13:36:36.357Z,4.88
2023-12-01T13:39:03.536Z,4.40
2023-12-01T13:41:30.508Z,4.78
2023-12-01T13:43:57.225Z,4.43
2023-12-01T13:46:23.922Z,4.85
2023-12-01T13:48:50.546Z,4.07
2023-12-01T13:51:17.260Z,6.63
2023-12-01T13:53:43.882Z,4.72
2023-12-01T13:56:11.745Z,5.07
2023-12-01T13:58:42.519Z,6.03
2023-12-01T14:01:10.576Z,4.20
2023-12-01T14:03:37.395Z,4.68
2023-12-01T14:06:04.393Z,5.93
2023-12-01T14:08:30.999Z,4.35
2023-12-01T14:10:57.549Z,3.55
2023-12-01T14:13:24.126Z,4.18
2023-12-01T14:15:50.767Z,4.47
2023-12-01T14:18:17.414Z,5.30
2023-12-01T14:20:44.088Z,5.75
2023-12-01T14:23:10.626Z,4.72
2023-12-01T14:25:37.158Z,4.25
2023-12-01T14:28:03.801Z,5.15
2023-12-01T14:30:30.526Z,5.03
2023-12-01T14:32:57.652Z,4.70
2023-12-01T14:35:24.203Z,4.47
2023-12-01T14:37:51.684Z,4.68
2023-12-01T14:40:18.318Z,4.60
2023-12-01T14:42:45.684Z,5.13
2023-12-01T14:45:12.457Z,6.45
2023-12-01T14:47:39.203Z,4.90
2023-12-01T14:50:06.736Z,4.75
2023-12-01T14:52:33.717Z,5.85
2023-12-01T14:55:00.353Z,4.40
2023-12-01T14:57:27.033Z,4.50
2023-12-01T14:59:53.651Z,4.35
2023-12-01T15:02:20.350Z,4.35
2023-12-01T15:04:46.999Z,5.43
2023-12-01T15:07:13.527Z,4.97
2023-12-01T15:09:40.068Z,4.32
2023-12-01T15:12:07.130Z,4.47
2023-12-01T15:14:33.693Z,4.38
2023-12-01T15:17:00.683Z,7.25
2023-12-01T15:19:27.498Z,3.97
2023-12-01T15:21:59.764Z,5.38
2023-12-01T15:24:26.849Z,4.80
2023-12-01T15:26:56.872Z,5.43
2023-12-01T15:29:24.442Z,5.70
2023-12-01T15:31:51.273Z,4.32
2023-12-01T15:34:17.859Z,5.00
2023-12-01T15:36:44.468Z,4.40
2023-12-01T15:39:12.398Z,6.43
2023-12-01T15:41:39.822Z,6.63
2023-12-01T15:44:06.452Z,4.80
2023-12-01T15:46:33.321Z,5.72
2023-12-01T15:49:00.102Z,4.88
2023-12-01T15:51:26.738Z,6.63
2023-12-01T15:53:53.432Z,4.50
2023-12-01T15:56:20.022Z,6.47
2023-12-01T15:58:46.505Z,4.50
2023-12-01T16:01:13.213Z,4.82
2023-12-01T16:03:40.049Z,4.63
2023-12-01T16:06:07.105Z,5.85
2023-12-01T16:08:33.701Z,7.15
2023-12-01T16:11:00.249Z,6.43
2023-12-01T16:13:26.823Z,6.22
2023-12-01T16:15:53.374Z,5.00
2023-12-01T16:18:24.676Z,8.02
2023-12-01T16:20:52.851Z,6.68
2023-12-01T16:23:20.542Z,4.47
2023-12-01T16:25:48.337Z,4.63
2023-12-01T16:28:14.961Z,6.25
2023-12-01T16:30:41.513Z,7.07
2023-12-01T16:33:08.832Z,4.40
2023-12-01T16:35:35.673Z,5.22
2023-12-01T16:38:04.865Z,7.13
2023-12-01T16:40:31.383Z,7.72
2023-12-01T16:42:58.208Z,5.78
2023-12-01T16:45:24.820Z,5.82
2023-12-01T16:47:52.430Z,7.28
2023-12-01T16:50:19.185Z,6.03
2023-12-01T16:52:45.872Z,8.00
2023-12-01T16:55:13.562Z,7.15
2023-12-01T16:57:40.524Z,7.00
2023-12-01T17:00:08.232Z,6.20
2023-12-01T17:02:35.064Z,8.70
2023-12-01T17:05:01.727Z,7.28
2023-12-01T17:07:28.297Z,7.15
2023-12-01T17:09:54.828Z,6.05
2023-12-01T17:12:21.552Z,7.07
2023-12-01T17:14:48.311Z,7.28
2023-12-01T17:17:14.939Z,8.52
2023-12-01T17:19:42.033Z,13.85
2023-12-01T17:22:08.859Z,9.05
2023-12-01T17:24:40.350Z,9.65
2023-12-01T17:27:06.872Z,8.65
2023-12-01T17:29:33.422Z,9.15
2023-12-01T17:32:01.675Z,8.13
2023-12-01T17:34:28.355Z,12.27
2023-12-01T17:36:54.972Z,10.32
2023-12-01T17:39:21.941Z,10.38
2023-12-01T17:41:48.562Z,8.20
2023-12-01T17:44:15.146Z,7.40
2023-12-01T17:46:41.680Z,8.00
2023-12-01T17:49:08.204Z,7.90
2023-12-01T17:51:34.850Z,8.00
2023-12-01T17:54:01.504Z,8.77
2023-12-01T17:56:28.080Z,6.95
2023-12-01T17:58:55.991Z,6.55
2023-12-01T18:01:24.427Z,7.07
2023-12-01T18:03:51.233Z,6.28
2023-12-01T18:06:18.049Z,6.90
2023-12-01T18:08:44.654Z,7.43
2023-12-01T18:11:11.420Z,7.40
2023-12-01T18:13:38.624Z,7.50
2023-12-01T18:16:05.708Z,7.60
2023-12-01T18:18:33.576Z,7.65
2023-12-01T18:21:04.688Z,11.35
2023-12-01T18:23:31.749Z,10.13
2023-12-01T18:25:58.523Z,8.18
2023-12-01T18:28:26.178Z,9.88
2023-12-01T18:30:53.096Z,8.95
2023-12-01T18:33:19.795Z,7.90
2023-12-01T18:35:47.092Z,8.57
2023-12-01T18:38:17.346Z,6.68
2023-12-01T18:40:46.902Z,9.52
2023-12-01T18:43:13.957Z,9.93
2023-12-01T18:45:41.243Z,8.43
2023-12-01T18:48:08.208Z,9.43
2023-12-01T18:50:36.531Z,9.48
2023-12-01T18:53:03.841Z,6.38
2023-12-01T18:55:30.700Z,9.18
2023-12-01T18:57:57.337Z,6.63
2023-12-01T19:00:24.092Z,7.80
2023-12-01T19:02:50.797Z,7.05
2023-12-01T19:05:18.801Z,8.45
2023-12-01T19:07:46.385Z,7.57
2023-12-01T19:10:13.155Z,7.15
2023-12-01T19:12:39.702Z,9.43
2023-12-01T19:15:07.454Z,9.43
2023-12-01T19:17:34.282Z,7.45
2023-12-01T19:20:00.873Z,10.05
2023-12-01T19:22:27.459Z,9.18
2023-12-01T19:24:54.004Z,6.80
2023-12-01T19:27:20.716Z,7.93
2023-12-01T19:29:47.381Z,8.10
2023-12-01T19:32:13.991Z,7.90
2023-12-01T19:34:41.783Z,7.93
2023-12-01T19:37:08.335Z,5.90
2023-12-01T19:39:35.060Z,6.82
2023-12-01T19:42:01.833Z,7.25
2023-12-01T19:44:28.369Z,8.52
2023-12-01T19:46:55.141Z,8.65
2023-12-01T19:49:21.907Z,9.52
2023-12-01T19:51:48.719Z,7.20
2023-12-01T19:54:15.410Z,8.02
2023-12-01T19:56:46.087Z,9.75
2023-12-01T19:59:12.665Z,9.55
2023-12-01T20:01:44.337Z,11.13
2023-12-01T20:04:10.890Z,13.82
2023-12-01T20:06:37.502Z,8.82
2023-12-01T20:09:04.328Z,9.57
2023-12-01T20:11:30.912Z,10.40
2023-12-01T20:13:57.437Z,7.43
2023-12-01T20:16:23.979Z,7.05
2023-12-01T20:18:50.743Z,8.90
2023-12-01T20:21:18.752Z,8.82
2023-12-01T20:23:45.375Z,9.88
2023-12-01T20:26:12.026Z,9.65
2023-12-01T20:28:38.550Z,6.90
2023-12-01T20:31:05.301Z,8.55
2023-12-01T20:33:31.948Z,7.00
2023-12-01T20:35:58.582Z,9.45
2023-12-01T20:38:25.144Z,7.32
2023-12-01T20:40:52.903Z,7.53
2023-12-01T20:43:20.032Z,6.45
2023-12-01T20:45:47.175Z,10.18
2023-12-01T20:48:13.770Z,10.45
2023-12-01T20:50:40.331Z,7.40
2023-12-01T20:53:07.636Z,10.23
2023-12-01T20:55:34.200Z,7.45
2023-12-01T20:58:00.790Z,14.10
2023-12-01T21:00:28.836Z,12.50
2023-12-01T21:02:55.589Z,9.20
2023-12-01T21:05:22.566Z,11.10
2023-12-01T21:07:49.406Z,11.65
2023-12-01T21:10:16.220Z,10.43
2023-12-01T21:12:42.954Z,11.50
2023-12-01T21:15:10.260Z,11.25
2023-12-01T21:17:37.370Z,7.88
2023-12-01T21:20:05.145Z,6.55
2023-12-01T21:22:31.706Z,7.85
2023-12-01T21:24:58.253Z,8.90
2023-12-01T21:27:25.077Z,8.23
2023-12-01T21:29:54.092Z,7.75
2023-12-01T21:32:22.263Z,7.25
2023-12-01T21:34:49.014Z,7.32
2023-12-01T21:37:16.865Z,7.35
2023-12-01T21:39:45.409Z,8.48
2023-12-01T21:42:12.144Z,10.25
2023-12-01T21:44:38.728Z,9.15
2023-12-01T21:47:05.845Z,8.90
2023-12-01T21:49:32.509Z,8.00
2023-12-01T21:51:59.287Z,9.80
2023-12-01T21:54:25.893Z,9.30
2023-12-01T21:56:52.582Z,8.23
2023-12-01T21:59:19.198Z,8.80
2023-12-01T22:01:45.738Z,10.18
2023-12-01T22:04:12.325Z,8.77
2023-12-01T22:06:38.866Z,8.05
2023-12-01T22:09:06.496Z,7.63
2023-12-01T22:11:33.109Z,10.27
2023-12-01T22:13:59.624Z,7.65
2023-12-01T22:16:30.239Z,8.30
2023-12-01T22:18:57.371Z,10.18
2023-12-01T22:21:27.244Z,9.13
2023-12-01T22:23:53.845Z,8.95
2023-12-01T22:26:20.408Z,7.15
2023-12-01T22:28:47.460Z,7.75
2023-12-01T22:31:14.038Z,9.55
2023-12-01T22:33:40.578Z,9.63
2023-12-01T22:36:07.435Z,8.80
2023-12-01T22:38:33.966Z,8.15
2023-12-01T22:41:00.636Z,9.45
2023-12-01T22:43:27.149Z,9.00
2023-12-01T22:45:53.665Z,9.30
2023-12-01T22:48:20.509Z,7.40
2023-12-01T22:50:47.119Z,7.13
2023-12-01T22:53:13.788Z,7.78
2023-12-01T22:55:40.422Z,7.43
2023-12-01T22:58:07.001Z,8.45
2023-12-01T23:00:34.527Z,7.03
2023-12-01T23:03:01.583Z,9.73
2023-12-01T23:05:28.667Z,8.27
2023-12-01T23:07:56.423Z,7.40
2023-12-01T23:10:23.155Z,9.85
2023-12-01T23:12:49.707Z,10.23
2023-12-01T23:15:16.338Z,8.18
2023-12-01T23:17:43.040Z,8.52
2023-12-01T23:20:24.195Z,10.50
2023-12-01T23:22:50.786Z,12.20
2023-12-01T23:25:17.538Z,9.65
2023-12-01T23:27:44.179Z,8.38
2023-12-01T23:30:11.338Z,8.75
2023-12-01T23:32:38.585Z,9.38
2023-12-01T23:35:07.268Z,7.25
2023-12-01T23:37:33.893Z,8.00
2023-12-01T23:40:00.508Z,7.40
2023-12-01T23:42:27.220Z,9.82
2023-12-01T23:44:53.754Z,9.10
2023-12-01T23:47:20.284Z,9.10
2023-12-01T23:49:46.923Z,8.38
2023-12-01T23:52:13.720Z,9.77
2023-12-01T23:54:40.286Z,9.48
2023-12-01T23:57:06.908Z,9.43
2023-12-01T23:59:33.469Z,7.93
